TimeEDT,TemperatureF,Dew PointF,Humidity,Sea Level PressureIn,VisibilityMPH,Wind Direction,Wind SpeedMPH,Gust SpeedMPH,PrecipitationIn,Events,Conditions,WindDirDegrees,DateUTC
12:53 AM,75.9,64.9,69,29.94,10.0,South,11.5,-,N/A,,Partly Cloudy,170,2013-05-31 04:53:00
1:53 AM,75.0,66.0,73,29.93,10.0,South,16.1,20.7,N/A,,Partly Cloudy,190,2013-05-31 05:53:00
2:53 AM,75.0,66.0,73,29.92,10.0,South,11.5,-,N/A,,Scattered Clouds,180,2013-05-31 06:53:00
3:37 AM,73.4,64.4,73,29.96,10.0,WSW,25.3,34.5,N/A,Thunderstorm,Mostly Cloudy,240,2013-05-31 07:37:00
3:53 AM,69.1,63.0,81,29.94,10.0,SW,13.8,27.6,0.00,Rain,Light Rain,220,2013-05-31 07:53:00
4:53 AM,66.9,63.0,87,29.92,10.0,South,5.8,-,0.03,,Mostly Cloudy,190,2013-05-31 08:53:00
5:53 AM,66.9,64.0,90,29.90,10.0,SSE,5.8,-,N/A,,Scattered Clouds,150,2013-05-31 09:53:00
6:53 AM,68.0,63.0,84,29.89,10.0,SSE,11.5,-,N/A,,Partly Cloudy,160,2013-05-31 10:53:00
7:53 AM,70.0,64.9,84,29.90,10.0,South,13.8,27.6,0.01,Rain,Light Rain,180,2013-05-31 11:53:00
8:53 AM,69.1,64.0,84,29.91,10.0,SSW,12.7,23.0,0.02,Rain,Light Rain,200,2013-05-31 12:53:00
9:53 AM,71.1,64.9,81,29.91,10.0,South,15.0,23.0,0.00,,Overcast,190,2013-05-31 13:53:00
10:53 AM,72.0,64.9,78,29.92,10.0,South,16.1,-,N/A,,Overcast,190,2013-05-31 14:53:00
11:34 AM,71.6,64.4,78,29.93,10.0,South,15.0,23.0,N/A,,Mostly Cloudy,190,2013-05-31 15:34:00
11:53 AM,73.9,64.9,73,29.93,10.0,South,17.3,24.2,N/A,,Mostly Cloudy,190,2013-05-31 15:53:00
12:53 PM,73.9,64.0,71,29.93,10.0,SSW,13.8,21.9,N/A,,Scattered Clouds,210,2013-05-31 16:53:00
1:53 PM,75.9,64.9,69,29.93,10.0,SSW,12.7,21.9,N/A,,Mostly Cloudy,200,2013-05-31 17:53:00
2:53 PM,75.9,64.0,67,29.90,10.0,South,13.8,20.7,N/A,,Mostly Cloudy,180,2013-05-31 18:53:00
3:53 PM,77.0,64.9,66,29.88,10.0,South,13.8,18.4,N/A,,Scattered Clouds,180,2013-05-31 19:53:00
4:53 PM,75.9,66.0,71,29.87,10.0,South,13.8,-,N/A,,Scattered Clouds,190,2013-05-31 20:53:00
5:53 PM,77.0,66.0,69,29.87,10.0,SSW,13.8,-,N/A,,Scattered Clouds,200,2013-05-31 21:53:00
6:53 PM,75.0,64.9,71,29.86,10.0,SSW,10.4,-,N/A,,Mostly Cloudy,210,2013-05-31 22:53:00
7:53 PM,75.0,64.9,71,29.83,10.0,SSE,3.5,-,N/A,,Scattered Clouds,150,2013-05-31 23:53:00
8:53 PM,73.0,66.0,79,29.83,10.0,SSE,5.8,-,N/A,,Clear,160,2013-06-01 00:53:00
9:53 PM,72.0,66.0,81,29.84,10.0,South,5.8,-,0.00,Rain,Light Rain,170,2013-06-01 01:53:00
10:15 PM,71.6,66.2,83,29.83,10.0,SSE,5.8,-,0.00,,Mostly Cloudy,150,2013-06-01 02:15:00
10:39 PM,71.6,66.2,83,29.84,10.0,SSE,8.1,-,0.00,,Scattered Clouds,150,2013-06-01 02:39:00
10:53 PM,72.0,66.9,84,29.84,10.0,SSE,6.9,-,0.00,,Partly Cloudy,150,2013-06-01 02:53:00
11:53 PM,71.1,64.9,81,29.84,10.0,South,9.2,-,N/A,,Partly Cloudy,180,2013-06-01 03:53:00